Vandalia, North Carolina
Current Conditions -  °F | °C
As of 8:54 AM on Friday 19 Dec 2014 (Local Time) from KGSO Reporting Station
Scattered Clouds Scattered Clouds  
Wind Chill: 42°   Ceiling: Unl
Heat Index: 42°   Visibility: 10mi
Dew Point: 21°   Wind: 3mph
Humidity: 43%   Direction: 10°N
Pressure: 30.15"   Gusts: NA
Location:  36°N, 79.7628°W
Report Text: KGSO 191354Z 01003KT 10SM FEW065 SCT250 06/M06 A3015 RMK AO2 SLP212 T00561061
Loading
Personal Weather Stations






























Interactive Weather Map New forecast layout! Learn more

10-Day Weather Forecast

Advertisements
Track Severe Weather on mobile